Sorry, you need to enable JavaScript to visit this website.

MCST Banner Image

MODIS Events Routine Calibrations

Title Date UTC Year DOY Command Load Notes
Nighttime Day Mode Thu, 01/13/2022 0:52:26 2022 013 MOD_OA03_FR_NIGHT_RATE.2 After Lunar Roll
Nighttime Day Mode Thu, 01/13/2022 0:04:51 2022 013 MOD_OA03_FR_DAY_RATE.1 After Lunar Roll (01:53 late)
Lunar Roll Wed, 01/12/2022 23:27:41 to 23:31:27 2022 012 MOD_OA08_ROLL_MAN.1
Nighttime Day Mode Wed, 01/12/2022 23:11:39 2022 012 MOD_OA03_FR_NIGHT_RATE.2 Before Lunar Roll (01:53 early)
Nighttime Day Mode Wed, 01/12/2022 22:24:04 2022 012 MOD_OA03_FR_DAY_RATE.1 (before Lunar Roll)
SD/SDSM Mon, 01/03/2022 22:19:13 to 22:33:11 2022 003 MOD_OA15_SDSM_OPEN.1 OA-15: SD/SDSM Open ̶ B-side
SD/SDSM Mon, 01/03/2022 20:40:20 to 20:54:18 2022 003 MOD_OA16_SDSM_SCREEN.2 OA-16: SD/SDSM Screened ̶ B-side
BB WU/CD Thu, 12/23/2021 8:00:00 2021 357 MOD_BB_TEMP_SET_285K_B.2 BB Temp Set to 285K for CP B Coefficient
BB WU/CD Wed, 12/22/2021 12:00:30 2021 356 MOD_BB_DCYCLE_THIRD.1 Set blackbody heater duty cycle to THIRD
BB WU/CD Wed, 12/22/2021 12:00:00 2021 356 MOD_BB_TEMP_SET_270K_B.2 BB Temp Set to 270K for CP B Coefficients
BB WU/CD Wed, 12/22/2021 8:00:30 2021 356 MOD_BB_DCYCLE_FULL.1 Set blackbody heater duty cycle to FULL
BB WU/CD Wed, 12/22/2021 8:00:00 2021 356 MOD_BB_TEMP_SET_315K_B.2 BB Temp Set to 315K for CP B Coefficients
BB WU/CD Wed, 12/22/2021 4:00:00 2021 356 MOD_BB_TEMP_SET_290K_B.2 BB Temp Set to 290K for CP B Coefficients
BB WU/CD Wed, 12/22/2021 1:00:00 2021 356 MOD_BB_TEMP_SET_285K_B.2 BB Temp Set to 285K for CP B Coefficients
BB WU/CD Tue, 12/21/2021 21:00:00 2021 355 MOD_BB_TEMP_SET_280K_B.2 BB Temp Set to 280K for CP B Coefficients
BB WU/CD Tue, 12/21/2021 3:00:00 2021 355 MOD_BB_TEMP_SET_270K_B.2 BB Temp Set to 270K for CP B Coefficients
PV Ecal Sun, 12/19/2021 20:49:17 to 20:51:47 2021 353 MOD_OA27_PV_ECAL.1 OA-27: Photovoltaic bands electronics calibration. Centered on S/C maximum latitude.
SRCA 1 Watt Radiometric Sat, 12/18/2021 20:11:33 to 22:03:39 2021 352 MOD_OA21_SRCA_1W_RAD.2 OA-21: SRCA 1W Radiometric Continuous Calibration. Data collection: 20:27:27-22:03:39 (Covering 15 minutes S/C night, day, night, day, and 15 minutes S/C night)
SRCA Setup Sat, 12/18/2021 20:08:33 to 20:08:49 2021 352 MOD_SRCA_SETUP_L1_L4_L6_CC.1 SRCA setup activity using lamps 1, 4, and 6 (spare), and in constant current feedback mode
Nighttime Day Mode Tue, 12/14/2021 5:35:45 2021 348 MOD_OA03_FR_NIGHT_RATE.2
Nighttime Day Mode Tue, 12/14/2021 4:48:10 2021 348 MOD_OA03_FR_DAY_RATE.1 (01:53 late)
Lunar Roll Tue, 12/14/2021 4:25:48 to 4:29:34 2021 348 MOD_OA08_ROLL_MAN.1
Nighttime Day Mode Tue, 12/14/2021 3:54:59 2021 348 MOD_OA03_FR_NIGHT_RATE.2 (01:53 early)
Nighttime Day Mode Tue, 12/14/2021 3:07:24 2021 348 MOD_OA03_FR_DAY_RATE.1
SD/SDSM Mon, 12/13/2021 22:00:16 to 22:14:14 2021 347 MOD_OA15_SDSM_OPEN.1 OA-15: SD/SDSM Open – B-side
SD/SDSM Mon, 12/13/2021 20:21:23 to 20:35:21 2021 347 MOD_OA16_SDSM_SCREEN.2 OA-16: SD/SDSM Screened – B-side
SD/SDSM Mon, 11/22/2021 21:42:21 to 21:56:19 2021 326 MOD_OA15_SDSM_OPEN.1 OA67-15: SD/SDSM Open - B-side
SD/SDSM Mon, 11/22/2021 20:03:28 to 20:17:26 2021 326 MOD_OA16_SDSM_SCREEN.2 OA-16: SD/SDSM Screened - B-side
Nighttime Day Mode Sun, 11/14/2021 15:18:01 2021 318 MOD_OA03_FR_NIGHT_RATE.2
Nighttime Day Mode Sun, 11/14/2021 14:30:27 2021 318 MOD_OA03_FR_DAY_RATE.1 (01:53 late)
Lunar Roll Sun, 11/14/2021 14:18:30 to 14:22:16 2021 318 MOD_OA08_ROLL_MAN.1
Nighttime Day Mode Sun, 11/14/2021 13:37:15 2021 318 MOD_OA03_FR_NIGHT_RATE.2 (01:53 early)
Nighttime Day Mode Sun, 11/14/2021 12:49:41 2021 318 MOD_OA03_FR_DAY_RATE.1
SD/SDSM Mon, 11/01/2021 23:04:20 to 23:18:18 2021 305 MOD_OA15_SDSM_OPEN.1 OA67-15: SD/SDSM Open – B-side
SD/SDSM Mon, 11/01/2021 21:25:27 to 21:39:25 2021 305 MOD_OA16_SDSM_SCREEN.2 OA-16: SD/SDSM Screened – B-side
Nighttime Day Mode Sat, 10/16/2021 7:37:10 2021 289 MOD_OA03_FR_NIGHT_RATE.2
Nighttime Day Mode Sat, 10/16/2021 6:49:36 2021 289 MOD_OA03_FR_DAY_RATE.1 (01:53 late)
Lunar Roll Sat, 10/16/2021 6:37:37 to 6:41:23 2021 289 MOD_OA08_ROLL_MAN.1
Nighttime Day Mode Sat, 10/16/2021 5:56:24 2021 289 MOD_OA03_FR_NIGHT_RATE.2 (01:53 early)
Nighttime Day Mode Sat, 10/16/2021 5:08:50 2021 289 MOD_OA03_FR_DAY_RATE.1
SD/SDSM Mon, 10/11/2021 22:47:56 to 23:01:54 2021 284 MOD_OA15_SDSM_OPEN.1 OA67-15: SD/SDSM Open – B-side
SD/SDSM Mon, 10/11/2021 21:09:04 to 21:23:02 2021 284 MOD_OA16_SDSM_SCREEN.2 OA-16: SD/SDSM Screened – B-side
BB WU/CD Thu, 10/07/2021 8:00:00 2021 280 MOD_BB_TEMP_SET_285K_B.2 BB Temp Set to 285K for CP B Coefficient
BB WU/CD Wed, 10/06/2021 12:00:30 2021 279 MOD_BB_DCYCLE_THIRD.1 Set blackbody heater duty cycle to THIRD
BB WU/CD Wed, 10/06/2021 12:00:00 2021 279 MOD_BB_TEMP_SET_270K_B.2 BB Temp Set to 270K for CP B Coefficients
BB WU/CD Wed, 10/06/2021 8:00:30 2021 279 MOD_BB_DCYCLE_FULL.1 Set blackbody heater duty cycle to FULL
BB WU/CD Wed, 10/06/2021 8:00:00 2021 279 MOD_BB_TEMP_SET_315K_B.2 BB Temp Set to 315K for CP B Coefficients
BB WU/CD Wed, 10/06/2021 4:00:00 2021 279 MOD_BB_TEMP_SET_290K_B.2 BB Temp Set to 290K for CP B Coefficients
BB WU/CD Wed, 10/06/2021 1:00:00 2021 279 MOD_BB_TEMP_SET_285K_B.2 BB Temp Set to 285K for CP B Coefficients
BB WU/CD Tue, 10/05/2021 21:00:00 2021 278 MOD_BB_TEMP_SET_280K_B.2 BB Temp Set to 280K for CP B Coefficients
CSV

Events Notes

See list of command loads